Priwall — V2OX8 — position and weather

sailwx.info

Track history (hours):
 
Tides and Currents Weather Stations Pressure Air Temp Water Temp Dewpoint Dewpoint Depression Visibility Wind Speed Wind Dir Waves Ship Positions

Priwall

Last reported at 2017-Jan-21 04:05 UTC. Time now 2017-Jan-22 14:20 UTC.
Position N 53°33' E 000°15'.

Length 88 m; draft 3.3 m.

Type: Ship. MMSI: 304739000.

Date/timePositionNaut miles runAvg speedWind from/ knotsBaromVisibWave heightAir tempDewpointWater temp
2017-Jan-21 04:05N 53°33' E 000°15'4 8.5
2017-Jan-21 03:33N 53°33' E 000°08'1110.8
2017-Jan-21 02:33N 53°38' W 000°09'10 9.6
2017-Jan-21 01:34N 53°43' W 000°23'  
2017-Jan-13 17:26N 53°41' W 000°33'8 9.5
2017-Jan-13 16:33N 53°43' W 000°19'1010.4
2017-Jan-13 15:33N 53°37' W 000°05'10 8.6
2017-Jan-13 14:22N 53°33' E 000°11'46 4.2
2017-Jan-13 03:32N 53°02' E 001°08'7 7.4
2017-Jan-13 02:33N 53°00' E 001°19'8 7.6
2017-Jan-13 01:33N 52°58' E 001°31'9 8.5
2017-Jan-13 00:33N 52°51' E 001°41'7 7.2
2017-Jan-12 23:33N 52°46' E 001°49'6 6.0
2017-Jan-12 22:29N 52°41' E 001°56'27 4.6
2017-Jan-12 16:33N 52°14' E 001°51'10 9.5
2017-Jan-12 15:33N 52°05' E 001°50'1010.3
2017-Jan-12 14:33N 51°54' E 001°48'10 9.7
2017-Jan-12 13:33N 51°45' E 001°49'10 9.1
2017-Jan-12 12:24N 51°34' E 001°49'8 9.2
2017-Jan-12 11:33N 51°27' E 001°46'9 9.1
2017-Jan-12 10:32N 51°18' E 001°42'9 9.0
2017-Jan-12 09:33N 51°10' E 001°35'6 5.8
2017-Jan-12 08:31N 51°04' E 001°37'7 7.0
2017-Jan-12 07:33N 50°59' E 001°30'120 8.5
2017-Jan-11 17:34N 50°06' W 001°18'1110.5
2017-Jan-11 16:33N 50°03' W 001°34'9 8.8
2017-Jan-11 15:34N 50°00' W 001°47'7 7.1
2017-Jan-11 14:33N 49°58' W 001°58'6 5.7
2017-Jan-11 13:32N 49°57' W 002°06'  
Track history (hours):
 
Tides and Currents Weather Stations Pressure Air Temp Water Temp Dewpoint Dewpoint Depression Visibility Wind Speed Wind Dir Waves Ship Positions

Priwall

Last reported at 2017-Jan-21 04:05 UTC. Time now 2017-Jan-22 14:20 UTC.
Position N 53°33' E 000°15'.

Length 88 m; draft 3.3 m.

Type: Ship. MMSI: 304739000.

Date/timePositionNaut miles runAvg speedWind from/ knotsBaromVisibWave heightAir tempDewpointWater temp
2017-Jan-21 04:05N 53°33' E 000°15'4 8.5
2017-Jan-21 03:33N 53°33' E 000°08'1110.8
2017-Jan-21 02:33N 53°38' W 000°09'10 9.6
2017-Jan-21 01:34N 53°43' W 000°23'  
2017-Jan-13 17:26N 53°41' W 000°33'8 9.5
2017-Jan-13 16:33N 53°43' W 000°19'1010.4
2017-Jan-13 15:33N 53°37' W 000°05'10 8.6
2017-Jan-13 14:22N 53°33' E 000°11'46 4.2
2017-Jan-13 03:32N 53°02' E 001°08'7 7.4
2017-Jan-13 02:33N 53°00' E 001°19'8 7.6
2017-Jan-13 01:33N 52°58' E 001°31'9 8.5
2017-Jan-13 00:33N 52°51' E 001°41'7 7.2
2017-Jan-12 23:33N 52°46' E 001°49'6 6.0
2017-Jan-12 22:29N 52°41' E 001°56'27 4.6
2017-Jan-12 16:33N 52°14' E 001°51'10 9.5
2017-Jan-12 15:33N 52°05' E 001°50'1010.3
2017-Jan-12 14:33N 51°54' E 001°48'10 9.7
2017-Jan-12 13:33N 51°45' E 001°49'10 9.1
2017-Jan-12 12:24N 51°34' E 001°49'8 9.2
2017-Jan-12 11:33N 51°27' E 001°46'9 9.1
2017-Jan-12 10:32N 51°18' E 001°42'9 9.0
2017-Jan-12 09:33N 51°10' E 001°35'6 5.8
2017-Jan-12 08:31N 51°04' E 001°37'7 7.0
2017-Jan-12 07:33N 50°59' E 001°30'120 8.5
2017-Jan-11 17:34N 50°06' W 001°18'1110.5
2017-Jan-11 16:33N 50°03' W 001°34'9 8.8
2017-Jan-11 15:34N 50°00' W 001°47'7 7.1
2017-Jan-11 14:33N 49°58' W 001°58'6 5.7
2017-Jan-11 13:32N 49°57' W 002°06'  

Dump ship's entire track history